メインページ
METAR-TAF:

METAR-TAF

空港 :

トルクメンバシ, トルクメニスタン

緯度: 40-03-48N, 経度: 053-00-26E, 海抜: 86m

現時点の気象観測

当レポートは13分前の18:00(UTC)に作成
の風 6kt
気温 5°C
湿度 52%
気圧 1032 hPa
視程10km以上
1,500メートル以下は雲なし、積乱雲なし

METAR: UTAK 171800Z 10006KT CAVOK 05/M04 Q1032 R16R/CLRD70 NOSIG

時間: 23:13 (18:13 UTC)

予報

当レポートは1時間43分前の16:30(UTC)に作成
予報は17日の 18時(UTC)から 18日の 18時(UTC)まで有効
北東の風 12kt
視程: 6000m
高度3300ftの雲は散在している
高度3300ftの雲は散在している, 積乱雲.
高度10000ftの雲は散在している
17日の 18時(UTC)から 17日の 24時(UTC)まで一時的に
変向風 2kt
視程: 3000m
高度500ftの雲は散在している
18日の 00時(UTC)から 18日の 04時(UTC)まで一時的に
変向風 2kt
視程: 1000m
高度300ftの千切れ雲あり

TAF: UTAK 171630Z 1718/1818 05012KT 6000 SCT033 SCT033CB SCT100 TEMPO 1718/1724 VRB02KT 3000 BR SCT005 TEMPO 1800/1804 VRB02KT 1000 BR BKN003

4,000以上の空港の気象観測と天気予報(METAR報とTAF報)

利用可能な観測所は地図上に黄色い丸と赤い丸で示す。

丸の上にカーソルを重ねると観測所名を参照できる。

次にクリックすると気象観測と天気予報を参照できる。

マップの切り替え:黒色「×」印の緑ボタンをクリックして拡大、「-」印の緑ボタンをクリックして縮小、緑色の三角印をクリックして隣りの地図に切り替え


METAR-TAF: